createdAt,value
2018-04-23T00:00:21.548Z,7.15
2018-04-23T00:02:49.748Z,9.40
2018-04-23T00:05:17.172Z,11.15
2018-04-23T00:07:44.705Z,14.87
2018-04-23T00:10:12.176Z,21.00
2018-04-23T00:12:39.571Z,11.70
2018-04-23T00:15:06.984Z,8.73
2018-04-23T00:17:34.408Z,14.02
2018-04-23T00:20:01.930Z,12.75
2018-04-23T00:22:30.089Z,10.10
2018-04-23T00:24:58.264Z,8.68
2018-04-23T00:27:25.679Z,14.07
2018-04-23T00:29:53.091Z,16.50
2018-04-23T00:32:20.600Z,8.52
2018-04-23T00:34:48.063Z,12.98
2018-04-23T00:37:15.491Z,15.00
2018-04-23T00:39:42.892Z,9.98
2018-04-23T00:42:11.071Z,9.30
2018-04-23T00:44:39.289Z,11.45
2018-04-23T00:47:06.740Z,11.55
2018-04-23T00:49:34.940Z,10.50
2018-04-23T00:52:02.408Z,15.13
2018-04-23T00:54:29.824Z,15.18
2018-04-23T00:56:57.256Z,11.70
2018-04-23T00:59:24.678Z,10.15
2018-04-23T01:01:52.198Z,14.57
2018-04-23T01:04:20.352Z,9.98
2018-04-23T01:06:48.527Z,13.60
2018-04-23T01:09:16.715Z,18.33
2018-04-23T01:11:44.124Z,10.80
2018-04-23T01:14:11.580Z,16.62
2018-04-23T01:16:38.987Z,10.80
2018-04-23T01:19:06.404Z,14.48
2018-04-23T01:21:34.607Z,10.90
2018-04-23T01:24:02.065Z,16.83
2018-04-23T01:26:29.463Z,12.15
2018-04-23T01:28:57.032Z,13.98
2018-04-23T01:31:25.184Z,17.98
2018-04-23T01:33:52.675Z,10.50
2018-04-23T01:36:20.084Z,11.60
2018-04-23T01:38:47.511Z,17.27
2018-04-23T01:41:14.919Z,11.52
2018-04-23T01:43:42.355Z,12.57
2018-04-23T01:46:09.760Z,13.25
2018-04-23T01:48:37.192Z,10.00
2018-04-23T01:51:04.608Z,17.70
2018-04-23T01:53:32.031Z,11.73
2018-04-23T01:56:00.199Z,8.77
2018-04-23T01:58:28.371Z,10.02
2018-04-23T02:00:55.804Z,11.95
2018-04-23T02:03:23.244Z,13.80
2018-04-23T02:05:50.707Z,16.35
2018-04-23T02:08:18.120Z,17.80
2018-04-23T02:10:45.532Z,13.60
2018-04-23T02:13:13.736Z,14.05
2018-04-23T02:15:41.153Z,12.80
2018-04-23T02:18:08.598Z,10.27
2018-04-23T02:20:36.076Z,12.45
2018-04-23T02:23:03.540Z,12.60
2018-04-23T02:25:30.960Z,10.20
2018-04-23T02:27:58.388Z,8.73
2018-04-23T02:30:25.811Z,10.77
2018-04-23T02:32:54.028Z,14.65
2018-04-23T02:35:22.199Z,14.90
2018-04-23T02:37:49.668Z,13.88
2018-04-23T02:40:17.087Z,11.80
2018-04-23T02:42:44.496Z,12.85
2018-04-23T02:45:12.672Z,9.70
2018-04-23T02:47:40.847Z,15.38
2018-04-23T02:50:08.356Z,17.62
2018-04-23T02:52:35.759Z,12.88
2018-04-23T02:55:03.207Z,19.65
2018-04-23T02:57:30.616Z,8.98
2018-04-23T02:59:59.563Z,10.10
2018-04-23T03:02:27.004Z,12.20
2018-04-23T03:04:54.402Z,20.55
2018-04-23T03:07:21.820Z,10.82
2018-04-23T03:09:49.232Z,15.50
2018-04-23T03:12:17.412Z,14.57
2018-04-23T03:14:45.716Z,15.45
2018-04-23T03:17:13.132Z,10.43
2018-04-23T03:19:40.543Z,14.48
2018-04-23T03:22:08.727Z,16.50
2018-04-23T03:24:36.916Z,16.35
2018-04-23T03:27:04.411Z,11.82
2018-04-23T03:29:32.700Z,11.88
2018-04-23T03:32:00.859Z,11.55
2018-04-23T03:34:29.035Z,12.40
2018-04-23T03:36:56.535Z,15.25
2018-04-23T03:39:23.945Z,11.12
2018-04-23T03:41:51.360Z,10.55
2018-04-23T03:44:19.536Z,13.60
2018-04-23T03:46:47.744Z,13.98
2018-04-23T03:49:15.154Z,10.63
2018-04-23T03:51:42.567Z,15.43
2018-04-23T03:54:10.743Z,16.67
2018-04-23T03:56:38.960Z,18.60
2018-04-23T03:59:07.131Z,15.98
2018-04-23T04:01:35.309Z,12.90
2018-04-23T04:04:03.483Z,11.12
2018-04-23T04:06:30.903Z,11.35
2018-04-23T04:08:58.323Z,13.45
2018-04-23T04:11:25.739Z,14.82
2018-04-23T04:14:05.223Z,18.77
2018-04-23T04:16:44.671Z,27.30
2018-04-23T04:19:12.120Z,9.95
2018-04-23T04:21:39.567Z,11.48
2018-04-23T04:24:07.020Z,20.37
2018-04-23T04:26:34.541Z,16.95
2018-04-23T04:29:01.992Z,16.23
2018-04-23T04:31:30.163Z,19.35
2018-04-23T04:33:57.572Z,17.92
2018-04-23T04:36:25.042Z,17.77
2018-04-23T04:38:52.476Z,14.35
2018-04-23T04:41:19.960Z,19.15
2018-04-23T04:43:48.135Z,13.57
2018-04-23T04:46:15.604Z,18.77
2018-04-23T04:48:43.088Z,11.43
2018-04-23T04:51:10.544Z,13.32
2018-04-23T04:53:37.952Z,14.77
2018-04-23T04:56:05.367Z,12.65
2018-04-23T04:58:33.547Z,17.75
2018-04-23T05:01:01.756Z,13.35
2018-04-23T05:03:29.180Z,19.25
2018-04-23T05:05:56.607Z,13.57
2018-04-23T05:08:24.072Z,10.85
2018-04-23T05:10:51.491Z,12.90
2018-04-23T05:13:18.908Z,14.70
2018-04-23T05:15:46.312Z,13.32
2018-04-23T05:18:13.863Z,13.68
2018-04-23T05:20:41.271Z,18.80
2018-04-23T05:23:08.793Z,15.30
2018-04-23T05:25:36.196Z,13.85
2018-04-23T05:28:03.631Z,11.63
2018-04-23T05:30:31.027Z,11.27
2018-04-23T05:32:58.597Z,16.02
2018-04-23T05:35:26.005Z,19.10
2018-04-23T05:37:53.529Z,10.18
2018-04-23T05:40:20.972Z,15.80
2018-04-23T05:42:48.503Z,12.13
2018-04-23T05:45:16.758Z,15.63
2018-04-23T05:47:44.919Z,15.07
2018-04-23T05:50:12.327Z,12.77
2018-04-23T05:52:39.759Z,18.98
2018-04-23T05:55:07.224Z,12.88
2018-04-23T05:57:34.695Z,14.27
2018-04-23T06:00:02.180Z,15.65
2018-04-23T06:02:29.585Z,14.40
2018-04-23T06:04:56.991Z,16.65
2018-04-23T06:07:25.195Z,23.35
2018-04-23T06:09:52.604Z,21.65
2018-04-23T06:12:20.020Z,17.87
2018-04-23T06:14:48.215Z,14.38
2018-04-23T06:17:15.628Z,15.82
2018-04-23T06:19:43.042Z,17.98
2018-04-23T06:22:11.236Z,19.77
2018-04-23T06:24:39.396Z,22.15
2018-04-23T06:27:06.908Z,21.85
2018-04-23T06:29:34.329Z,21.52
2018-04-23T06:32:01.768Z,22.23
2018-04-23T06:34:29.204Z,17.35
2018-04-23T06:36:56.616Z,15.82
2018-04-23T06:39:24.040Z,13.43
2018-04-23T06:41:52.244Z,19.92
2018-04-23T06:44:20.396Z,14.52
2018-04-23T06:46:48.704Z,18.52
2018-04-23T06:49:16.112Z,28.20
2018-04-23T06:51:43.532Z,15.40
2018-04-23T06:54:11.703Z,18.75
2018-04-23T06:56:39.119Z,11.27
2018-04-23T06:59:06.559Z,18.05
2018-04-23T07:01:33.952Z,15.75
2018-04-23T07:04:01.407Z,11.50
2018-04-23T07:06:28.880Z,15.77
2018-04-23T07:08:56.288Z,18.35
2018-04-23T07:11:23.749Z,14.23
2018-04-23T07:13:51.881Z,17.60
2018-04-23T07:16:20.064Z,16.40
2018-04-23T07:18:47.469Z,27.00
2018-04-23T07:21:14.928Z,22.80
2018-04-23T07:23:42.344Z,17.40
2018-04-23T07:26:09.764Z,25.05
2018-04-23T07:28:37.336Z,23.83
2018-04-23T07:31:04.811Z,14.95
2018-04-23T07:33:32.228Z,18.20
2018-04-23T07:35:59.648Z,18.25
2018-04-23T07:38:27.064Z,19.70
2018-04-23T07:40:54.475Z,17.20
2018-04-23T07:43:22.714Z,13.32
2018-04-23T07:45:50.144Z,15.07
2018-04-23T07:48:17.571Z,23.58
2018-04-23T07:50:44.977Z,17.73
2018-04-23T07:53:13.168Z,23.08
2018-04-23T07:55:40.592Z,18.67
2018-04-23T07:58:08.124Z,20.30
2018-04-23T08:00:35.536Z,17.05
2018-04-23T08:03:02.951Z,22.15
2018-04-23T08:05:30.363Z,26.75
2018-04-23T08:07:57.897Z,18.70
2018-04-23T08:10:25.359Z,19.27
2018-04-23T08:12:52.776Z,22.50
2018-04-23T08:15:20.188Z,27.10
2018-04-23T08:17:48.371Z,22.77
2018-04-23T08:20:16.563Z,20.70
2018-04-23T08:22:44.747Z,19.67
2018-04-23T08:25:12.927Z,23.85
2018-04-23T08:27:41.132Z,16.08
2018-04-23T08:30:08.535Z,23.27
2018-04-23T08:32:35.963Z,18.67
2018-04-23T08:35:03.438Z,20.08
2018-04-23T08:37:30.884Z,25.50
2018-04-23T08:39:58.271Z,22.75
2018-04-23T08:42:26.463Z,20.92
2018-04-23T08:44:53.881Z,21.45
2018-04-23T08:47:21.407Z,16.73
2018-04-23T08:49:48.841Z,25.00
2018-04-23T08:52:16.260Z,17.92
2018-04-23T08:54:43.675Z,27.65
2018-04-23T08:57:11.096Z,26.55
2018-04-23T08:59:38.508Z,21.17
2018-04-23T09:02:05.920Z,20.27
2018-04-23T09:04:33.388Z,21.17
2018-04-23T09:07:01.567Z,20.50
2018-04-23T09:09:29.751Z,19.80
2018-04-23T09:11:57.951Z,20.00
2018-04-23T09:14:25.371Z,22.77
2018-04-23T09:16:52.791Z,20.08
2018-04-23T09:19:20.212Z,30.55
2018-04-23T09:21:47.620Z,18.50
2018-04-23T09:24:15.923Z,22.25
2018-04-23T09:26:43.388Z,19.70
2018-04-23T09:29:10.872Z,30.60
2018-04-23T09:31:38.353Z,28.17
2018-04-23T09:34:05.760Z,23.75
2018-04-23T09:36:33.282Z,19.75
2018-04-23T09:39:01.466Z,24.48
2018-04-23T09:41:28.867Z,20.23
2018-04-23T09:43:56.291Z,22.27
2018-04-23T09:46:23.699Z,22.25
2018-04-23T09:48:51.131Z,23.23
2018-04-23T09:51:18.548Z,17.30
2018-04-23T09:53:45.959Z,25.65
2018-04-23T09:56:14.148Z,26.87
2018-04-23T09:58:42.513Z,20.85
2018-04-23T10:01:16.465Z,30.75
2018-04-23T10:03:43.879Z,23.87
2018-04-23T10:06:11.333Z,23.73
2018-04-23T10:08:39.478Z,22.15
2018-04-23T10:11:07.668Z,20.95
2018-04-23T10:13:35.840Z,17.00
2018-04-23T10:16:03.260Z,26.98
2018-04-23T10:18:30.676Z,31.05
2018-04-23T10:20:58.107Z,20.33
2018-04-23T10:23:25.543Z,22.77
2018-04-23T10:25:52.966Z,21.52
2018-04-23T10:28:20.373Z,22.25
2018-04-23T10:30:48.559Z,24.85
2018-04-23T10:33:16.750Z,20.88
2018-04-23T10:35:44.955Z,22.58
2018-04-23T10:38:12.432Z,16.70
2018-04-23T10:40:39.846Z,18.85
2018-04-23T10:43:07.265Z,20.67
2018-04-23T10:45:34.723Z,21.65
2018-04-23T10:48:02.136Z,23.65
2018-04-23T10:50:29.561Z,26.25
2018-04-23T10:52:56.993Z,23.27
2018-04-23T10:55:24.408Z,19.55
2018-04-23T10:57:51.826Z,16.00
2018-04-23T11:00:19.344Z,25.15
2018-04-23T11:02:46.808Z,28.05
2018-04-23T11:05:14.279Z,39.28
2018-04-23T11:07:41.700Z,21.67
2018-04-23T11:10:09.112Z,25.50
2018-04-23T11:12:36.532Z,29.65
2018-04-23T11:15:03.958Z,24.37
2018-04-23T11:17:31.387Z,21.40
2018-04-23T11:19:58.900Z,21.48
2018-04-23T11:22:26.328Z,20.12
2018-04-23T11:24:53.736Z,15.35
2018-04-23T11:27:21.152Z,18.83
2018-04-23T11:29:48.668Z,19.52
2018-04-23T11:32:16.115Z,14.82
2018-04-23T11:34:43.523Z,22.87
2018-04-23T11:37:10.980Z,20.85
2018-04-23T11:39:38.396Z,23.70
2018-04-23T11:42:05.819Z,19.20
2018-04-23T11:44:33.239Z,20.85
2018-04-23T11:47:00.651Z,18.25
2018-04-23T11:49:29.052Z,15.45
2018-04-23T11:51:56.462Z,20.67
2018-04-23T11:54:23.888Z,19.67
2018-04-23T11:56:51.305Z,20.48
2018-04-23T11:59:18.748Z,26.85
2018-04-23T12:01:46.192Z,24.85
2018-04-23T12:04:13.676Z,27.17
2018-04-23T12:06:41.084Z,22.13
2018-04-23T12:09:08.521Z,15.95
2018-04-23T12:11:35.988Z,18.37
2018-04-23T12:14:03.461Z,21.52
2018-04-23T12:16:30.927Z,18.23
2018-04-23T12:18:59.217Z,22.48
2018-04-23T12:21:27.376Z,22.33
2018-04-23T12:23:55.563Z,21.23
2018-04-23T12:26:23.741Z,16.55
2018-04-23T12:28:51.236Z,17.58
2018-04-23T12:31:18.704Z,17.42
2018-04-23T12:33:46.068Z,32.70
2018-04-23T12:36:13.551Z,21.70
2018-04-23T12:38:41.012Z,22.98
2018-04-23T12:41:08.501Z,29.58
2018-04-23T12:43:35.966Z,30.55
2018-04-23T12:46:04.165Z,24.15
2018-04-23T12:48:32.328Z,30.60
2018-04-23T12:50:59.791Z,33.88
2018-04-23T12:53:27.159Z,25.75
2018-04-23T12:55:55.336Z,47.17
2018-04-23T12:58:23.524Z,53.13
2018-04-23T13:00:51.732Z,45.10
2018-04-23T13:03:19.200Z,34.13
2018-04-23T13:05:46.668Z,32.80
2018-04-23T13:08:14.083Z,28.23
2018-04-23T13:10:41.496Z,35.53
2018-04-23T13:13:09.680Z,32.55
2018-04-23T13:15:37.860Z,32.72
2018-04-23T13:18:06.043Z,28.12
2018-04-23T13:20:34.227Z,33.67
2018-04-23T13:23:01.646Z,26.92
2018-04-23T13:25:29.094Z,30.27
2018-04-23T13:27:56.564Z,37.25
2018-04-23T13:30:23.976Z,28.38
2018-04-23T13:32:51.503Z,26.40
2018-04-23T13:35:18.940Z,30.88
2018-04-23T13:37:46.368Z,21.27
2018-04-23T13:40:13.815Z,30.30
2018-04-23T13:42:41.994Z,23.67
2018-04-23T13:45:10.184Z,28.02
2018-04-23T13:47:37.596Z,27.33
2018-04-23T13:50:05.030Z,33.47
2018-04-23T13:52:32.491Z,31.95
2018-04-23T13:54:59.963Z,30.45
2018-04-23T13:57:27.438Z,33.72
2018-04-23T13:59:54.848Z,30.92
2018-04-23T14:02:22.268Z,31.87
2018-04-23T14:04:50.464Z,24.25
2018-04-23T14:07:17.871Z,28.00
2018-04-23T14:09:45.411Z,20.65
2018-04-23T14:12:12.819Z,31.15
2018-04-23T14:14:40.239Z,21.35
2018-04-23T14:17:07.652Z,15.98
2018-04-23T14:19:35.068Z,12.65
2018-04-23T14:22:03.243Z,11.25
2018-04-23T14:24:31.428Z,11.27
2018-04-23T14:26:59.604Z,15.95
2018-04-23T14:29:27.028Z,13.15
2018-04-23T14:31:54.446Z,19.02
2018-04-23T14:34:21.947Z,9.55
2018-04-23T14:36:49.357Z,11.50
2018-04-23T14:39:16.784Z,16.30
2018-04-23T14:41:44.191Z,11.48
2018-04-23T14:44:11.620Z,13.27
2018-04-23T14:46:39.047Z,11.32
2018-04-23T14:49:06.449Z,12.00
2018-04-23T14:51:34.624Z,10.00
2018-04-23T14:54:02.837Z,15.27
2018-04-23T14:56:30.251Z,28.98
2018-04-23T14:58:57.796Z,8.57
2018-04-23T15:01:25.184Z,12.98
2018-04-23T15:03:52.611Z,14.10
2018-04-23T15:06:20.098Z,13.13
2018-04-23T15:08:47.511Z,11.20
2018-04-23T15:11:14.919Z,14.93
2018-04-23T15:13:42.395Z,12.32
2018-04-23T15:16:09.816Z,13.85
2018-04-23T15:18:37.223Z,13.55
2018-04-23T15:21:05.415Z,13.18
2018-04-23T15:23:32.843Z,13.62
2018-04-23T15:26:00.251Z,14.23
2018-04-23T15:28:28.425Z,12.55
2018-04-23T15:30:56.592Z,9.15
2018-04-23T15:33:24.099Z,14.07
2018-04-23T15:35:51.547Z,9.13
2018-04-23T15:38:18.924Z,12.90
2018-04-23T15:40:47.124Z,21.42
2018-04-23T15:43:14.532Z,9.40
2018-04-23T15:45:41.992Z,10.27
2018-04-23T15:48:09.432Z,9.48
2018-04-23T15:50:36.912Z,11.55
2018-04-23T15:53:04.322Z,10.35
2018-04-23T15:55:31.894Z,12.70
2018-04-23T15:57:59.332Z,14.60
2018-04-23T16:00:27.617Z,9.07
2018-04-23T16:02:55.764Z,7.68
2018-04-23T16:05:23.975Z,10.73
2018-04-23T16:07:51.449Z,11.60
2018-04-23T16:10:18.857Z,9.35
2018-04-23T16:12:46.263Z,6.93
2018-04-23T16:15:14.448Z,8.23
2018-04-23T16:17:42.623Z,11.82
2018-04-23T16:20:10.127Z,9.25
2018-04-23T16:22:37.546Z,13.65
2018-04-23T16:25:05.068Z,12.40
2018-04-23T16:27:32.467Z,6.80
2018-04-23T16:29:59.900Z,15.88
2018-04-23T16:32:28.071Z,12.43
2018-04-23T16:34:55.484Z,11.25
2018-04-23T16:37:22.892Z,10.40
2018-04-23T16:39:50.331Z,12.45
2018-04-23T16:42:17.731Z,7.97
2018-04-23T16:44:50.540Z,13.32
2018-04-23T16:47:12.648Z,13.18
2018-04-23T16:49:40.090Z,12.27
2018-04-23T16:52:07.524Z,8.27
2018-04-23T16:54:35.738Z,12.02
2018-04-23T16:57:03.205Z,8.85
2018-04-23T16:59:30.623Z,11.25
2018-04-23T17:01:58.027Z,6.65
2018-04-23T17:04:26.205Z,9.27
2018-04-23T17:06:53.611Z,7.97
2018-04-23T17:09:21.024Z,11.77
2018-04-23T17:11:48.450Z,12.00
2018-04-23T17:14:15.903Z,8.18
2018-04-23T17:16:43.376Z,9.00
2018-04-23T17:19:10.848Z,11.75
2018-04-23T17:21:38.434Z,11.70
2018-04-23T17:24:06.590Z,9.52
2018-04-23T17:26:34.793Z,8.27
2018-04-23T17:29:02.184Z,9.23
2018-04-23T17:31:29.637Z,8.82
2018-04-23T17:33:57.048Z,9.10
2018-04-23T17:36:24.472Z,7.25
2018-04-23T17:38:52.643Z,6.82
2018-04-23T17:41:20.965Z,8.32
2018-04-23T17:43:49.111Z,8.13
2018-04-23T17:46:17.319Z,6.75
2018-04-23T17:48:45.507Z,4.53
2018-04-23T17:51:12.920Z,7.78
2018-04-23T17:53:40.343Z,11.63
2018-04-23T17:56:07.770Z,5.07
2018-04-23T17:58:35.215Z,7.55
2018-04-23T18:01:02.620Z,9.85
2018-04-23T18:03:30.127Z,12.73
2018-04-23T18:05:57.546Z,7.45
2018-04-23T18:08:24.965Z,8.35
2018-04-23T18:10:52.436Z,13.02
2018-04-23T18:13:19.911Z,10.20
2018-04-23T18:15:47.327Z,10.55
2018-04-23T18:18:14.732Z,7.95
2018-04-23T18:20:42.931Z,16.60
2018-04-23T18:23:10.401Z,4.47
2018-04-23T18:25:37.883Z,6.70
2018-04-23T18:28:06.079Z,8.23
2018-04-23T18:30:33.508Z,9.35
2018-04-23T18:33:01.675Z,8.75
2018-04-23T18:35:29.088Z,7.37
2018-04-23T18:37:56.492Z,8.85
2018-04-23T18:40:23.911Z,7.40
2018-04-23T18:42:52.083Z,8.00
2018-04-23T18:45:19.576Z,8.63
2018-04-23T18:47:47.074Z,8.40
2018-04-23T18:50:14.529Z,11.85
2018-04-23T18:52:42.724Z,10.98
2018-04-23T18:55:10.289Z,9.45
2018-04-23T18:57:38.440Z,10.63
2018-04-23T19:00:06.615Z,8.50
2018-04-23T19:02:34.020Z,9.95
2018-04-23T19:05:01.431Z,9.90
2018-04-23T19:07:28.840Z,5.60
2018-04-23T19:09:57.028Z,10.38
2018-04-23T19:12:25.200Z,9.23
2018-04-23T19:14:52.626Z,16.23
2018-04-23T19:17:20.084Z,9.00
2018-04-23T19:19:48.236Z,5.65
2018-04-23T19:22:16.411Z,11.48
2018-04-23T19:24:43.912Z,11.80
2018-04-23T19:27:11.320Z,9.85
2018-04-23T19:29:38.729Z,6.03
2018-04-23T19:32:06.972Z,7.10
2018-04-23T19:34:34.368Z,7.40
2018-04-23T19:37:01.771Z,4.95
2018-04-23T19:39:29.976Z,11.65
2018-04-23T19:41:58.171Z,8.07
2018-04-23T19:44:26.315Z,9.35
2018-04-23T19:46:54.487Z,8.93
2018-04-23T19:49:21.899Z,8.18
2018-04-23T19:51:49.308Z,8.77
2018-04-23T19:54:16.832Z,10.77
2018-04-23T19:56:44.231Z,9.55
2018-04-23T19:59:11.640Z,7.82
2018-04-23T20:01:39.141Z,20.20
2018-04-23T20:04:06.549Z,24.37
2018-04-23T20:06:33.955Z,8.05
2018-04-23T20:09:02.135Z,11.82
2018-04-23T20:11:29.551Z,30.45
2018-04-23T20:13:57.007Z,13.13
2018-04-23T20:16:24.487Z,8.30
2018-04-23T20:18:52.635Z,12.30
2018-04-23T20:21:20.827Z,15.60
2018-04-23T20:23:48.227Z,16.48
2018-04-23T20:26:15.695Z,10.43
2018-04-23T20:28:43.155Z,16.52
2018-04-23T20:31:10.624Z,11.90
2018-04-23T20:33:38.096Z,7.55
2018-04-23T20:36:05.524Z,13.15
2018-04-23T20:38:32.932Z,12.07
2018-04-23T20:41:00.348Z,10.32
2018-04-23T20:43:27.752Z,8.25
2018-04-23T20:45:55.971Z,17.62
2018-04-23T20:48:23.387Z,13.23
2018-04-23T20:50:50.835Z,13.45
2018-04-23T20:53:18.259Z,13.18
2018-04-23T20:55:46.466Z,17.12
2018-04-23T20:58:13.878Z,9.68
2018-04-23T21:00:41.273Z,8.80
2018-04-23T21:03:09.452Z,13.43
2018-04-23T21:05:36.926Z,18.77
2018-04-23T21:08:04.332Z,9.05
2018-04-23T21:10:31.801Z,9.73
2018-04-23T21:12:59.952Z,13.43
2018-04-23T21:15:27.364Z,14.90
2018-04-23T21:17:54.815Z,11.77
2018-04-23T21:20:22.231Z,12.90
2018-04-23T21:22:49.655Z,11.12
2018-04-23T21:25:17.128Z,10.25
2018-04-23T21:27:44.605Z,16.77
2018-04-23T21:30:12.028Z,10.27
2018-04-23T21:32:39.479Z,8.07
2018-04-23T21:35:06.898Z,7.00
2018-04-23T21:37:35.125Z,6.80
2018-04-23T21:40:02.493Z,6.20
2018-04-23T21:42:29.907Z,6.68
2018-04-23T21:44:58.079Z,10.85
2018-04-23T21:47:25.584Z,13.00
2018-04-23T21:49:52.992Z,13.93
2018-04-23T21:52:20.424Z,7.82
2018-04-23T21:54:47.831Z,10.82
2018-04-23T21:57:15.243Z,8.70
2018-04-23T21:59:43.447Z,13.02
2018-04-23T22:02:10.916Z,14.90
2018-04-23T22:04:38.315Z,7.28
2018-04-23T22:07:05.730Z,8.38
2018-04-23T22:09:33.157Z,10.25
2018-04-23T22:12:00.568Z,14.68
2018-04-23T22:14:27.976Z,12.02
2018-04-23T22:16:55.399Z,13.82
2018-04-23T22:19:22.811Z,12.13
2018-04-23T22:21:50.267Z,8.55
2018-04-23T22:24:17.736Z,13.18
2018-04-23T22:26:45.213Z,23.77
2018-04-23T22:29:12.627Z,33.55
2018-04-23T22:31:40.048Z,33.75
2018-04-23T22:34:07.463Z,19.12
2018-04-23T22:36:34.871Z,19.08
2018-04-23T22:39:03.052Z,10.70
2018-04-23T22:41:31.244Z,20.88
2018-04-23T22:43:59.428Z,17.80
2018-04-23T22:46:27.653Z,9.43
2018-04-23T22:48:55.823Z,17.65
2018-04-23T22:51:23.292Z,10.77
2018-04-23T22:53:50.763Z,8.93
2018-04-23T22:56:18.175Z,14.07
2018-04-23T22:58:45.599Z,14.80
2018-04-23T23:01:13.016Z,11.27
2018-04-23T23:03:40.423Z,10.18
2018-04-23T23:06:08.603Z,14.13
2018-04-23T23:08:36.821Z,11.35
2018-04-23T23:11:04.290Z,12.15
2018-04-23T23:13:32.435Z,11.25
2018-04-23T23:15:59.863Z,14.00
2018-04-23T23:18:27.272Z,10.00
2018-04-23T23:20:54.687Z,10.90
2018-04-23T23:23:22.095Z,9.32
2018-04-23T23:25:49.511Z,11.25
2018-04-23T23:28:16.929Z,10.30
2018-04-23T23:30:44.347Z,8.60
2018-04-23T23:33:11.760Z,10.73
2018-04-23T23:35:39.176Z,10.85
2018-04-23T23:38:07.372Z,12.65
2018-04-23T23:40:34.848Z,13.40
2018-04-23T23:43:02.429Z,12.95
2018-04-23T23:45:30.579Z,11.63
2018-04-23T23:47:58.759Z,15.05
2018-04-23T23:50:26.172Z,14.25
2018-04-23T23:52:53.583Z,8.07
2018-04-23T23:55:20.996Z,10.88
2018-04-23T23:57:48.468Z,11.95
